createdAt,value
2023-03-26T04:38:38.374Z,0.00
2023-03-26T04:39:38.365Z,0.00
2023-03-26T04:46:38.312Z,0.00
2023-03-26T04:47:38.297Z,0.00
2023-03-26T04:48:38.278Z,0.00
2023-03-26T04:50:38.258Z,0.00
2023-03-26T04:51:38.308Z,0.00
2023-03-26T04:52:38.232Z,0.00
2023-03-26T04:53:38.222Z,0.00
2023-03-26T04:54:38.212Z,0.00
2023-03-26T04:55:38.209Z,0.00
2023-03-26T04:56:38.253Z,0.00
2023-03-26T04:57:38.183Z,0.00
2023-03-26T04:58:38.178Z,0.00
2023-03-26T04:59:38.192Z,0.00
2023-03-26T05:00:38.153Z,0.00
2023-03-26T05:01:38.213Z,0.00
2023-03-26T05:02:38.144Z,0.00
2023-03-26T05:03:38.127Z,0.00
2023-03-26T05:04:38.154Z,0.00
2023-03-26T05:05:38.109Z,0.00
2023-03-26T05:06:38.160Z,0.00
2023-03-26T05:07:38.085Z,0.00
2023-03-26T05:08:38.075Z,0.00
2023-03-26T05:09:38.063Z,0.00
2023-03-26T05:10:38.059Z,0.00
2023-03-26T05:11:38.047Z,0.00
2023-03-26T05:12:38.032Z,0.00
2023-03-26T05:13:38.025Z,0.00
2023-03-26T05:14:38.023Z,0.00
2023-03-26T05:15:38.059Z,5.62
2023-03-26T05:16:38.031Z,5.62
2023-03-26T05:17:38.071Z,5.62
2023-03-26T05:18:37.981Z,5.62
2023-03-26T05:19:37.960Z,5.62
2023-03-26T05:20:37.953Z,5.62
2023-03-26T05:21:37.974Z,5.62
2023-03-26T05:22:38.266Z,5.62
2023-03-26T05:23:37.924Z,11.25
2023-03-26T05:24:37.914Z,11.25
2023-03-26T05:25:37.898Z,11.25
2023-03-26T05:26:37.889Z,11.25
2023-03-26T05:27:37.879Z,11.25
2023-03-26T05:28:37.875Z,16.87
2023-03-26T05:29:37.860Z,16.87
2023-03-26T05:30:37.851Z,16.87
2023-03-26T05:31:37.874Z,16.87
2023-03-26T05:32:37.889Z,16.87
2023-03-26T05:33:37.861Z,22.50
2023-03-26T05:34:37.808Z,22.50
2023-03-26T05:35:37.807Z,22.50
2023-03-26T05:36:37.791Z,22.50
2023-03-26T05:37:37.779Z,22.50
2023-03-26T05:38:37.769Z,28.12
2023-03-26T05:39:37.765Z,28.12
2023-03-26T05:40:37.751Z,28.12
2023-03-26T05:41:37.756Z,28.12
2023-03-26T05:42:37.736Z,28.12
2023-03-26T05:43:37.721Z,28.12
2023-03-26T05:44:37.719Z,33.75
2023-03-26T05:45:37.703Z,33.75
2023-03-26T05:46:37.688Z,33.75
2023-03-26T05:47:37.800Z,33.75
2023-03-26T05:48:37.675Z,33.75
2023-03-26T05:49:37.661Z,33.75
2023-03-26T05:50:37.651Z,39.37
2023-03-26T05:51:37.642Z,39.37
2023-03-26T05:52:37.882Z,39.37
2023-03-26T05:53:37.620Z,39.37
2023-03-26T05:54:37.610Z,39.37
2023-03-26T05:55:37.605Z,45.00
2023-03-26T05:56:37.632Z,45.00
2023-03-26T05:57:37.599Z,45.00
2023-03-26T05:58:37.568Z,45.00
2023-03-26T05:59:37.577Z,45.00
2023-03-26T06:00:37.547Z,50.62
2023-03-26T06:01:37.543Z,50.62
2023-03-26T06:02:37.558Z,50.62
2023-03-26T06:03:37.679Z,56.25
2023-03-26T06:04:37.636Z,56.25
2023-03-26T06:05:37.557Z,56.25
2023-03-26T06:06:37.491Z,61.87
2023-03-26T06:07:37.570Z,61.87
2023-03-26T06:08:37.481Z,61.87
2023-03-26T06:09:37.457Z,61.87
2023-03-26T06:10:37.447Z,67.50
2023-03-26T06:11:37.434Z,67.50
2023-03-26T06:12:37.430Z,67.50
2023-03-26T06:13:37.417Z,73.12
2023-03-26T06:14:37.408Z,73.12
2023-03-26T06:15:37.418Z,73.12
2023-03-26T06:16:37.433Z,73.12
2023-03-26T06:17:37.407Z,73.12
2023-03-26T06:18:37.374Z,73.12
2023-03-26T06:19:37.379Z,73.12
2023-03-26T06:20:37.344Z,73.12
2023-03-26T06:21:37.337Z,73.12
2023-03-26T06:22:37.321Z,73.12
2023-03-26T06:23:37.435Z,73.12
2023-03-26T06:24:37.307Z,73.12
2023-03-26T06:25:37.294Z,73.12
2023-03-26T06:26:37.289Z,73.12
2023-03-26T06:27:37.274Z,73.12
2023-03-26T06:28:37.262Z,73.12
2023-03-26T06:29:37.261Z,73.12
2023-03-26T06:30:37.243Z,78.75
2023-03-26T06:31:37.279Z,78.75
2023-03-26T06:32:37.340Z,78.75
2023-03-26T06:33:37.216Z,78.75
2023-03-26T06:34:37.286Z,84.37
2023-03-26T06:35:37.247Z,84.37
2023-03-26T06:36:37.187Z,84.37
2023-03-26T06:37:37.172Z,84.37
2023-03-26T06:38:37.164Z,90.00
2023-03-26T06:39:37.150Z,90.00
2023-03-26T06:40:37.141Z,90.00
2023-03-26T06:41:37.130Z,95.62
2023-03-26T06:43:09.090Z,95.62
2023-03-26T06:43:38.135Z,95.62
2023-03-26T06:44:37.101Z,95.62
2023-03-26T06:45:37.093Z,101.25
2023-03-26T06:46:37.105Z,101.25
2023-03-26T06:47:37.116Z,101.25
2023-03-26T06:48:37.065Z,101.25
2023-03-26T06:49:37.057Z,106.87
2023-03-26T06:50:37.038Z,101.25
2023-03-26T06:51:37.064Z,101.25
2023-03-26T06:52:37.017Z,101.25
2023-03-26T06:53:37.011Z,101.25
2023-03-26T06:54:37.001Z,106.87
2023-03-26T06:55:36.992Z,106.87
2023-03-26T06:56:36.999Z,106.87
2023-03-26T06:57:36.985Z,112.50
2023-03-26T06:58:36.961Z,118.12
2023-03-26T06:59:36.952Z,146.25
2023-03-26T07:00:36.939Z,135.00
2023-03-26T07:01:37.036Z,135.00
2023-03-26T07:02:36.920Z,151.87
2023-03-26T07:03:36.947Z,163.12
2023-03-26T07:04:36.901Z,163.12
2023-03-26T07:05:36.886Z,157.50
2023-03-26T07:06:36.885Z,163.12
2023-03-26T07:07:36.890Z,168.75
2023-03-26T07:08:37.887Z,157.50
2023-03-26T07:09:36.850Z,151.87
2023-03-26T07:10:36.840Z,151.87
2023-03-26T07:11:36.832Z,112.50
2023-03-26T07:12:36.820Z,112.50
2023-03-26T07:13:36.896Z,106.87
2023-03-26T07:14:36.798Z,106.87
2023-03-26T07:15:36.790Z,106.87
2023-03-26T07:16:36.831Z,106.87
2023-03-26T07:17:36.801Z,106.87
2023-03-26T07:18:36.757Z,106.87
2023-03-26T07:19:36.770Z,106.87
2023-03-26T07:20:36.744Z,106.87
2023-03-26T07:21:36.724Z,112.50
2023-03-26T07:22:36.724Z,118.12
2023-03-26T07:23:36.726Z,123.75
2023-03-26T07:24:36.699Z,129.37
2023-03-26T07:25:36.703Z,129.37
2023-03-26T07:26:36.679Z,135.00
2023-03-26T07:27:36.663Z,135.00
2023-03-26T07:28:36.803Z,135.00
2023-03-26T07:29:36.646Z,129.37
2023-03-26T07:30:36.636Z,129.37
2023-03-26T07:31:36.634Z,123.75
2023-03-26T07:32:36.663Z,118.12
2023-03-26T07:33:36.607Z,112.50
2023-03-26T07:34:36.594Z,118.12
2023-03-26T07:35:36.659Z,118.12
2023-03-26T07:36:36.570Z,118.12
2023-03-26T07:37:36.563Z,123.75
2023-03-26T07:38:36.546Z,129.37
2023-03-26T07:39:36.565Z,129.37
2023-03-26T07:40:36.534Z,168.75
2023-03-26T07:41:36.520Z,180.00
2023-03-26T07:42:36.510Z,191.25
2023-03-26T07:43:36.496Z,180.00
2023-03-26T07:44:36.488Z,196.87
2023-03-26T07:45:36.514Z,180.00
2023-03-26T07:46:36.471Z,196.87
2023-03-26T07:47:36.470Z,180.00
2023-03-26T07:48:36.688Z,196.87
2023-03-26T07:49:36.441Z,208.12
2023-03-26T07:50:36.430Z,208.12
2023-03-26T07:51:36.426Z,213.75
2023-03-26T07:52:36.403Z,191.25
2023-03-26T07:53:36.393Z,180.00
2023-03-26T07:54:36.387Z,180.00
2023-03-26T07:55:36.398Z,185.62
2023-03-26T07:56:36.487Z,208.12
2023-03-26T07:57:36.375Z,180.00
2023-03-26T07:58:36.339Z,225.00
2023-03-26T07:59:36.337Z,191.25
2023-03-26T08:00:36.323Z,185.62
2023-03-26T08:01:36.312Z,180.00
2023-03-26T08:02:36.326Z,174.37
2023-03-26T08:03:36.350Z,174.37
2023-03-26T08:04:36.348Z,180.00
2023-03-26T08:05:36.269Z,185.62
2023-03-26T08:06:36.272Z,196.87
2023-03-26T08:07:36.247Z,219.37
2023-03-26T08:08:36.241Z,191.25
2023-03-26T08:09:36.244Z,191.25
2023-03-26T08:10:36.231Z,191.25
2023-03-26T08:11:36.237Z,225.00
2023-03-26T08:12:36.197Z,258.75
2023-03-26T08:13:36.185Z,236.25
2023-03-26T08:14:36.175Z,213.75
2023-03-26T08:15:36.219Z,202.50
2023-03-26T08:16:36.159Z,202.50
2023-03-26T08:17:36.191Z,202.50
2023-03-26T08:18:36.149Z,208.12
2023-03-26T08:19:36.125Z,213.75
2023-03-26T08:20:36.119Z,208.12
2023-03-26T08:21:36.102Z,225.00
2023-03-26T08:22:36.103Z,196.87
2023-03-26T08:23:36.088Z,208.12
2023-03-26T08:24:36.078Z,213.75
2023-03-26T08:25:37.927Z,253.12
2023-03-26T08:26:36.056Z,219.37
2023-03-26T08:27:36.072Z,258.75
2023-03-26T08:28:36.031Z,225.00
2023-03-26T08:29:36.025Z,292.50
2023-03-26T08:30:36.017Z,236.25
2023-03-26T08:31:36.097Z,275.62
2023-03-26T08:32:36.013Z,270.00
2023-03-26T08:33:38.295Z,241.87
2023-03-26T08:34:35.983Z,315.00
2023-03-26T08:35:36.002Z,253.12
2023-03-26T08:36:35.951Z,275.62
2023-03-26T08:37:35.942Z,258.75
2023-03-26T08:38:35.935Z,264.37
2023-03-26T08:39:35.922Z,270.00
2023-03-26T08:40:35.912Z,270.00
2023-03-26T08:41:35.900Z,253.12
2023-03-26T08:42:35.892Z,270.00
2023-03-26T08:43:35.909Z,247.50
2023-03-26T08:44:35.884Z,253.12
2023-03-26T08:45:35.862Z,264.37
2023-03-26T08:46:35.886Z,270.00
2023-03-26T08:47:35.859Z,270.00
2023-03-26T08:48:35.846Z,331.87
2023-03-26T08:49:35.823Z,281.25
2023-03-26T08:50:35.814Z,315.00
2023-03-26T08:51:35.802Z,270.00
2023-03-26T08:52:35.806Z,281.25
2023-03-26T08:53:35.780Z,258.75
2023-03-26T08:54:35.774Z,253.12
2023-03-26T08:55:35.760Z,253.12
2023-03-26T08:56:35.791Z,236.25
2023-03-26T08:57:35.746Z,241.87
2023-03-26T08:58:35.733Z,241.87
2023-03-26T08:59:35.751Z,253.12
2023-03-26T09:00:35.708Z,258.75
2023-03-26T09:01:35.745Z,258.75
2023-03-26T09:02:35.727Z,236.25
2023-03-26T09:03:35.694Z,219.37
2023-03-26T09:04:35.668Z,208.12
2023-03-26T09:05:35.667Z,202.50
2023-03-26T09:06:35.655Z,196.87
2023-03-26T09:07:35.637Z,196.87
2023-03-26T09:08:35.639Z,196.87
2023-03-26T09:09:35.630Z,196.87
2023-03-26T09:10:35.609Z,196.87
2023-03-26T09:11:35.608Z,191.25
2023-03-26T09:12:35.598Z,180.00
2023-03-26T09:13:35.588Z,180.00
2023-03-26T09:14:35.572Z,180.00
2023-03-26T09:15:35.584Z,185.62
2023-03-26T09:16:35.623Z,191.25
2023-03-26T09:17:35.607Z,196.87
2023-03-26T09:18:35.531Z,196.87
2023-03-26T09:19:35.521Z,202.50
2023-03-26T09:20:35.516Z,202.50
2023-03-26T09:21:35.498Z,202.50
2023-03-26T09:22:35.494Z,202.50
2023-03-26T09:23:35.480Z,202.50
2023-03-26T09:24:35.465Z,208.12
2023-03-26T09:25:35.456Z,213.75
2023-03-26T09:26:35.449Z,225.00
2023-03-26T09:27:35.436Z,225.00
2023-03-26T09:28:35.431Z,225.00
2023-03-26T09:29:35.419Z,219.37
2023-03-26T09:30:35.409Z,213.75
2023-03-26T09:31:35.455Z,213.75
2023-03-26T09:32:35.418Z,213.75
2023-03-26T09:33:35.384Z,213.75
2023-03-26T09:34:35.376Z,213.75
2023-03-26T09:35:35.440Z,208.12
2023-03-26T09:36:35.353Z,196.87
2023-03-26T09:37:35.342Z,185.62
2023-03-26T09:38:35.330Z,174.37
2023-03-26T09:39:35.322Z,151.87
2023-03-26T09:40:35.309Z,135.00
2023-03-26T09:41:35.303Z,123.75
2023-03-26T09:42:35.290Z,118.12
2023-03-26T09:43:35.278Z,112.50
2023-03-26T09:44:35.273Z,106.87
2023-03-26T09:45:35.322Z,101.25
2023-03-26T09:46:35.255Z,101.25
2023-03-26T09:47:35.299Z,90.00
2023-03-26T09:48:35.241Z,90.00
2023-03-26T09:49:35.225Z,78.75
2023-03-26T09:50:35.207Z,73.12
2023-03-26T09:51:35.201Z,73.12
2023-03-26T09:52:35.185Z,67.50
2023-03-26T09:53:35.202Z,67.50
2023-03-26T09:54:35.172Z,67.50
2023-03-26T09:55:35.223Z,67.50
2023-03-26T09:56:36.402Z,73.12
2023-03-26T09:57:35.153Z,73.12
2023-03-26T09:58:35.125Z,73.12
2023-03-26T09:59:35.113Z,73.12
2023-03-26T10:00:35.116Z,78.75
2023-03-26T10:01:35.154Z,78.75
2023-03-26T10:02:45.295Z,84.37
2023-03-26T10:03:36.145Z,84.37
2023-03-26T10:04:35.089Z,84.37
2023-03-26T10:05:35.062Z,84.37
2023-03-26T10:06:35.042Z,84.37
2023-03-26T10:07:35.039Z,90.00
2023-03-26T10:08:35.025Z,90.00
2023-03-26T10:09:35.017Z,84.37
2023-03-26T10:10:35.007Z,90.00
2023-03-26T10:11:34.999Z,90.00
2023-03-26T10:12:34.993Z,95.62
2023-03-26T10:13:34.983Z,106.87
2023-03-26T10:14:34.968Z,112.50
2023-03-26T10:15:34.956Z,112.50
2023-03-26T10:16:35.001Z,118.12
2023-03-26T10:17:34.997Z,118.12
2023-03-26T10:18:34.923Z,118.12
2023-03-26T10:19:34.932Z,112.50
2023-03-26T10:20:34.898Z,112.50
2023-03-26T10:21:34.896Z,118.12
2023-03-26T10:22:34.875Z,118.12
2023-03-26T10:23:34.872Z,118.12
2023-03-26T10:24:34.865Z,118.12
2023-03-26T10:25:34.846Z,118.12
2023-03-26T10:26:34.856Z,123.75
2023-03-26T10:27:34.825Z,123.75
2023-03-26T10:28:34.815Z,129.37
2023-03-26T10:29:34.824Z,123.75
2023-03-26T10:30:34.805Z,123.75
2023-03-26T10:31:34.792Z,123.75
2023-03-26T10:32:34.800Z,123.75
2023-03-26T10:33:34.765Z,123.75
2023-03-26T10:34:34.754Z,123.75
2023-03-26T10:35:34.798Z,129.37
2023-03-26T10:36:34.725Z,129.37
2023-03-26T10:37:34.721Z,135.00
2023-03-26T10:38:34.709Z,135.00
2023-03-26T10:39:37.217Z,135.00
2023-03-26T10:40:34.688Z,135.00
2023-03-26T10:41:34.676Z,135.00
2023-03-26T10:42:34.677Z,135.00
2023-03-26T10:43:34.658Z,140.62
2023-03-26T10:44:34.669Z,151.87
2023-03-26T10:45:34.657Z,157.50
2023-03-26T10:46:34.710Z,163.12
2023-03-26T10:47:34.688Z,168.75
2023-03-26T10:48:34.605Z,185.62
2023-03-26T10:49:34.592Z,213.75
2023-03-26T10:50:34.587Z,258.75
2023-03-26T10:51:34.594Z,303.75
2023-03-26T10:52:34.562Z,337.50
2023-03-26T10:53:34.554Z,337.50
2023-03-26T10:54:34.544Z,354.37
2023-03-26T10:55:34.559Z,388.12
2023-03-26T10:56:34.563Z,371.25
2023-03-26T10:57:34.511Z,405.00
2023-03-26T10:58:49.293Z,416.25
2023-03-26T10:59:35.532Z,376.87
2023-03-26T11:00:34.483Z,433.12
2023-03-26T11:01:34.499Z,540.00
2023-03-26T11:02:34.507Z,371.25
2023-03-26T11:03:34.453Z,337.50
2023-03-26T11:04:34.443Z,348.75
2023-03-26T11:05:34.483Z,410.62
2023-03-26T11:06:34.420Z,438.75
2023-03-26T11:07:34.438Z,455.62
2023-03-26T11:08:34.401Z,388.12
2023-03-26T11:09:34.391Z,315.00
2023-03-26T11:10:34.385Z,326.25
2023-03-26T11:11:34.372Z,331.87
2023-03-26T11:12:34.368Z,303.75
2023-03-26T11:13:34.353Z,270.00
2023-03-26T11:14:35.408Z,270.00
2023-03-26T11:15:34.370Z,275.62
2023-03-26T11:16:34.320Z,258.75
2023-03-26T11:17:39.435Z,230.62
2023-03-26T11:18:35.332Z,225.00
2023-03-26T11:19:34.296Z,225.00
2023-03-26T11:20:34.291Z,208.12
2023-03-26T11:21:34.274Z,196.87
2023-03-26T11:22:34.263Z,185.62
2023-03-26T11:23:34.288Z,168.75
2023-03-26T11:24:34.250Z,163.12
2023-03-26T11:25:34.232Z,157.50
2023-03-26T11:26:34.228Z,151.87
2023-03-26T11:27:34.214Z,151.87
2023-03-26T11:28:34.205Z,151.87
2023-03-26T11:29:34.213Z,151.87
2023-03-26T11:30:34.186Z,146.25
2023-03-26T11:31:34.213Z,135.00
2023-03-26T11:32:34.221Z,123.75
2023-03-26T11:33:34.155Z,112.50
2023-03-26T11:34:34.140Z,101.25
2023-03-26T11:35:39.528Z,101.25
2023-03-26T11:36:35.143Z,95.62
2023-03-26T11:37:34.154Z,95.62
2023-03-26T11:38:34.103Z,90.00
2023-03-26T11:39:34.110Z,84.37
2023-03-26T11:40:34.085Z,73.12
2023-03-26T11:41:34.085Z,67.50
2023-03-26T11:42:34.068Z,67.50
2023-03-26T11:43:34.059Z,61.87
2023-03-26T11:44:34.040Z,61.87
2023-03-26T11:45:34.027Z,61.87
2023-03-26T11:46:34.054Z,61.87
2023-03-26T11:47:34.090Z,61.87
2023-03-26T11:48:34.105Z,61.87
2023-03-26T11:49:33.990Z,67.50
2023-03-26T11:50:33.983Z,73.12
2023-03-26T11:51:33.970Z,73.12
2023-03-26T11:52:33.971Z,78.75
2023-03-26T11:53:33.947Z,78.75
2023-03-26T11:54:33.937Z,73.12
2023-03-26T11:55:33.952Z,73.12
2023-03-26T11:56:34.027Z,67.50
2023-03-26T11:57:33.958Z,61.87
2023-03-26T11:58:33.902Z,61.87
2023-03-26T11:59:39.230Z,61.87
2023-03-26T12:00:34.892Z,61.87
2023-03-26T12:01:33.885Z,56.25
2023-03-26T12:02:34.014Z,56.25
2023-03-26T12:03:33.856Z,56.25
2023-03-26T12:04:33.924Z,50.62
2023-03-26T12:05:33.819Z,45.00
2023-03-26T12:06:33.805Z,45.00
2023-03-26T12:07:33.806Z,39.37
2023-03-26T12:08:33.833Z,33.75
2023-03-26T12:09:33.778Z,33.75
2023-03-26T12:10:33.763Z,33.75
2023-03-26T12:11:35.296Z,33.75
2023-03-26T12:12:33.744Z,28.12
2023-03-26T12:13:33.740Z,28.12
2023-03-26T12:14:33.728Z,28.12
2023-03-26T12:15:33.738Z,28.12
2023-03-26T12:16:33.750Z,28.12
2023-03-26T12:17:33.730Z,33.75
2023-03-26T12:18:33.684Z,33.75
2023-03-26T12:19:33.678Z,33.75
2023-03-26T12:20:33.665Z,33.75
2023-03-26T12:21:33.650Z,39.37
2023-03-26T12:22:33.642Z,45.00
2023-03-26T12:23:33.630Z,45.00
2023-03-26T12:24:33.631Z,50.62
2023-03-26T12:25:33.613Z,50.62
2023-03-26T12:26:33.606Z,56.25
2023-03-26T12:27:33.615Z,56.25
2023-03-26T12:28:33.601Z,61.87
2023-03-26T12:29:33.569Z,61.87
2023-03-26T12:30:33.560Z,61.87
2023-03-26T12:31:33.566Z,61.87
2023-03-26T12:32:45.269Z,61.87
2023-03-26T12:33:34.645Z,56.25
2023-03-26T12:34:33.515Z,56.25
2023-03-26T12:35:33.549Z,50.62
2023-03-26T12:36:33.495Z,50.62
2023-03-26T12:37:33.481Z,45.00
2023-03-26T12:38:33.548Z,50.62
2023-03-26T12:40:07.999Z,50.62
2023-03-26T12:40:33.455Z,50.62
2023-03-26T12:44:46.607Z,45.00
2023-03-26T12:44:51.311Z,50.62
2023-03-26T12:44:52.751Z,39.37
2023-03-26T12:44:53.177Z,45.00
2023-03-26T12:45:36.047Z,39.37
2023-03-26T12:47:55.222Z,33.75
2023-03-26T12:47:57.824Z,33.75
2023-03-26T12:48:34.487Z,33.75
2023-03-26T12:49:33.360Z,33.75
2023-03-26T12:51:33.340Z,33.75
2023-03-26T12:52:33.329Z,33.75
2023-03-26T12:53:33.320Z,33.75
2023-03-26T12:54:33.327Z,33.75
2023-03-26T12:55:33.299Z,33.75
2023-03-26T12:56:33.341Z,33.75
2023-03-26T12:57:33.284Z,33.75
2023-03-26T12:58:33.269Z,33.75
2023-03-26T12:59:33.276Z,33.75
2023-03-26T13:00:33.243Z,33.75
2023-03-26T13:01:33.323Z,33.75
2023-03-26T13:02:33.300Z,39.37
2023-03-26T13:04:33.203Z,45.00
2023-03-26T13:05:33.200Z,50.62
2023-03-26T13:06:33.189Z,50.62
2023-03-26T13:07:34.201Z,50.62
2023-03-26T13:08:33.165Z,50.62
2023-03-26T13:09:33.190Z,56.25
2023-03-26T13:10:33.145Z,61.87
2023-03-26T13:11:33.142Z,67.50
2023-03-26T13:12:33.126Z,73.12
2023-03-26T13:13:33.125Z,78.75
2023-03-26T13:14:33.112Z,78.75
2023-03-26T13:15:33.124Z,73.12
2023-03-26T13:16:33.104Z,67.50
2023-03-26T13:17:33.111Z,67.50
2023-03-26T13:18:33.071Z,67.50
2023-03-26T13:19:33.063Z,61.87
2023-03-26T13:20:33.082Z,61.87
2023-03-26T13:21:33.046Z,61.87
2023-03-26T13:22:33.045Z,56.25
2023-03-26T13:23:33.021Z,50.62
2023-03-26T13:24:33.007Z,50.62
2023-03-26T13:25:32.999Z,50.62
2023-03-26T13:26:33.003Z,50.62
2023-03-26T13:27:32.979Z,56.25
2023-03-26T13:28:32.965Z,56.25
2023-03-26T13:29:32.960Z,56.25
2023-03-26T13:30:32.981Z,56.25
2023-03-26T13:31:32.965Z,56.25
2023-03-26T13:32:32.993Z,50.62
2023-03-26T13:33:32.919Z,50.62
2023-03-26T13:34:32.914Z,56.25
2023-03-26T13:35:32.981Z,56.25
2023-03-26T13:36:32.999Z,56.25
2023-03-26T13:37:32.876Z,56.25
2023-03-26T13:38:32.866Z,56.25
2023-03-26T13:39:32.862Z,50.62
2023-03-26T13:40:32.856Z,50.62
2023-03-26T13:41:32.833Z,50.62
2023-03-26T13:42:32.826Z,50.62
2023-03-26T13:43:32.816Z,45.00
2023-03-26T13:44:32.805Z,50.62
2023-03-26T13:45:32.796Z,50.62
2023-03-26T13:46:32.805Z,50.62
2023-03-26T13:47:32.840Z,56.25
2023-03-26T13:48:32.764Z,61.87
2023-03-26T13:49:32.752Z,67.50
2023-03-26T13:50:32.741Z,73.12
2023-03-26T13:51:32.733Z,78.75
2023-03-26T13:52:32.726Z,84.37
2023-03-26T13:53:32.718Z,95.62
2023-03-26T13:54:32.710Z,101.25
2023-03-26T13:55:32.693Z,101.25
2023-03-26T13:56:32.692Z,95.62
2023-03-26T13:57:32.684Z,101.25
2023-03-26T13:58:34.334Z,95.62
2023-03-26T13:59:32.659Z,95.62
2023-03-26T14:00:32.645Z,95.62
2023-03-26T14:01:32.649Z,95.62
2023-03-26T14:02:32.659Z,95.62
2023-03-26T14:03:32.673Z,95.62
2023-03-26T14:04:32.648Z,95.62
2023-03-26T14:05:32.592Z,95.62
2023-03-26T14:06:32.583Z,95.62
2023-03-26T14:07:32.577Z,95.62
2023-03-26T14:08:32.903Z,95.62
2023-03-26T14:09:32.557Z,90.00
2023-03-26T14:10:32.541Z,90.00
2023-03-26T14:11:32.531Z,90.00
2023-03-26T14:12:32.519Z,84.37
2023-03-26T14:13:32.507Z,84.37
2023-03-26T14:14:32.497Z,84.37
2023-03-26T14:15:32.502Z,84.37
2023-03-26T14:16:32.586Z,90.00
2023-03-26T14:17:32.480Z,95.62
2023-03-26T14:18:32.453Z,95.62
2023-03-26T14:19:32.479Z,106.87
2023-03-26T14:20:32.430Z,112.50
2023-03-26T14:21:32.426Z,118.12
2023-03-26T14:22:32.411Z,118.12
2023-03-26T14:23:32.403Z,118.12
2023-03-26T14:24:32.386Z,118.12
2023-03-26T14:25:32.374Z,118.12
2023-03-26T14:26:32.366Z,118.12
2023-03-26T14:27:32.360Z,123.75
2023-03-26T14:28:32.345Z,129.37
2023-03-26T14:29:32.332Z,140.62
2023-03-26T14:30:32.323Z,151.87
2023-03-26T14:31:32.391Z,180.00
2023-03-26T14:32:32.335Z,174.37
2023-03-26T14:33:32.295Z,180.00
2023-03-26T14:34:32.286Z,163.12
2023-03-26T14:35:32.307Z,140.62
2023-03-26T14:36:32.261Z,129.37
2023-03-26T14:37:32.259Z,123.75
2023-03-26T14:38:32.244Z,112.50
2023-03-26T14:39:32.230Z,112.50
2023-03-26T14:40:32.226Z,106.87
2023-03-26T14:41:32.210Z,106.87
2023-03-26T14:42:32.199Z,101.25
2023-03-26T14:43:32.191Z,95.62
2023-03-26T14:44:47.777Z,95.62
2023-03-26T14:45:32.174Z,90.00
2023-03-26T14:46:32.266Z,90.00
2023-03-26T14:47:32.278Z,84.37
2023-03-26T14:48:32.214Z,84.37
2023-03-26T14:49:32.134Z,78.75
2023-03-26T14:50:32.131Z,78.75
2023-03-26T14:51:32.138Z,78.75
2023-03-26T14:52:32.100Z,78.75
2023-03-26T14:53:32.096Z,78.75
2023-03-26T14:54:32.084Z,78.75
2023-03-26T14:55:32.072Z,78.75
2023-03-26T14:56:32.100Z,78.75
2023-03-26T14:57:32.056Z,78.75
2023-03-26T14:58:32.044Z,73.12
2023-03-26T14:59:32.032Z,67.50
2023-03-26T15:00:32.055Z,61.87
2023-03-26T15:01:32.063Z,61.87
2023-03-26T15:02:32.063Z,61.87
2023-03-26T15:03:31.996Z,61.87
2023-03-26T15:04:31.994Z,61.87
2023-03-26T15:05:31.974Z,61.87
2023-03-26T15:06:31.962Z,61.87
2023-03-26T15:07:31.972Z,61.87
2023-03-26T15:08:33.874Z,67.50
2023-03-26T15:09:31.928Z,67.50
2023-03-26T15:10:31.922Z,67.50
2023-03-26T15:11:31.911Z,67.50
2023-03-26T15:12:31.899Z,67.50
2023-03-26T15:13:31.897Z,67.50
2023-03-26T15:14:31.880Z,67.50
2023-03-26T15:15:31.881Z,67.50
2023-03-26T15:16:31.922Z,67.50
2023-03-26T15:17:31.879Z,67.50
2023-03-26T15:18:31.841Z,67.50
2023-03-26T15:19:31.828Z,67.50
2023-03-26T15:20:31.816Z,67.50
2023-03-26T15:21:31.809Z,73.12
2023-03-26T15:22:31.802Z,73.12
2023-03-26T15:23:31.808Z,73.12
2023-03-26T15:24:31.775Z,78.75
2023-03-26T15:25:31.765Z,78.75
2023-03-26T15:26:31.753Z,78.75
2023-03-26T15:27:31.749Z,84.37
2023-03-26T15:28:31.739Z,84.37
2023-03-26T15:29:31.724Z,84.37
2023-03-26T15:30:32.893Z,90.00
2023-03-26T15:31:31.740Z,90.00
2023-03-26T15:32:31.713Z,95.62
2023-03-26T15:33:31.684Z,95.62
2023-03-26T15:34:31.674Z,101.25
2023-03-26T15:35:31.680Z,112.50
2023-03-26T15:36:31.652Z,135.00
2023-03-26T15:37:31.644Z,180.00
2023-03-26T15:38:31.628Z,157.50
2023-03-26T15:39:31.645Z,191.25
2023-03-26T15:40:31.607Z,292.50
2023-03-26T15:41:31.617Z,461.25
2023-03-26T15:42:31.593Z,326.25
2023-03-26T15:43:31.581Z,455.62
2023-03-26T15:44:36.066Z,180.00
2023-03-26T15:45:32.583Z,168.75
2023-03-26T15:46:31.598Z,163.12
2023-03-26T15:47:31.579Z,163.12
2023-03-26T15:48:31.529Z,168.75
2023-03-26T15:49:31.522Z,213.75
2023-03-26T15:50:31.506Z,247.50
2023-03-26T15:51:31.506Z,236.25
2023-03-26T15:52:32.511Z,315.00
2023-03-26T15:53:31.476Z,416.25
2023-03-26T15:54:31.647Z,466.87
2023-03-26T15:55:31.489Z,292.50
2023-03-26T15:56:31.542Z,421.87
2023-03-26T15:57:57.192Z,703.12
2023-03-26T16:02:51.128Z,765.00
2023-03-26T16:02:52.649Z,708.75
2023-03-26T16:03:52.569Z,759.37
2023-03-26T16:07:39.709Z,815.62
2023-03-26T16:07:41.125Z,781.87
2023-03-26T16:08:41.120Z,393.75
2023-03-26T16:22:58.700Z,720.00
2023-03-26T16:23:00.104Z,714.37
2023-03-26T16:24:00.131Z,652.50
2023-03-26T16:25:00.156Z,450.00
2023-03-26T16:26:01.105Z,241.87
2023-03-26T16:27:00.087Z,230.62
2023-03-26T16:28:00.103Z,230.62
2023-03-26T16:29:00.053Z,208.12
2023-03-26T16:30:00.059Z,213.75
2023-03-26T16:31:00.051Z,151.87
2023-03-26T16:32:00.077Z,140.62
2023-03-26T16:33:00.049Z,135.00
2023-03-26T16:33:59.998Z,135.00
2023-03-26T16:34:59.992Z,303.75
2023-03-26T16:36:00.000Z,450.00
2023-03-26T16:36:59.969Z,573.75
2023-03-26T16:37:59.960Z,433.12
2023-03-26T16:38:59.974Z,348.75
2023-03-26T16:39:59.948Z,219.37
2023-03-26T16:41:00.368Z,219.37
2023-03-26T16:42:05.604Z,225.00
2023-03-26T16:43:00.941Z,393.75
2023-03-26T16:43:59.899Z,315.00
2023-03-26T16:44:59.887Z,118.12
2023-03-26T16:45:59.885Z,95.62
2023-03-26T16:46:59.868Z,84.37
2023-03-26T16:47:59.868Z,78.75
2023-03-26T16:48:59.852Z,78.75
2023-03-26T16:50:08.530Z,73.12
2023-03-26T16:51:00.848Z,73.12
2023-03-26T16:51:59.825Z,67.50
2023-03-26T16:52:59.909Z,67.50
2023-03-26T16:53:59.801Z,61.87
2023-03-26T16:54:59.813Z,61.87
2023-03-26T16:55:59.778Z,61.87
2023-03-26T16:56:59.814Z,61.87
2023-03-26T16:57:59.757Z,61.87
2023-03-26T16:58:59.754Z,61.87
2023-03-26T17:00:05.900Z,67.50
2023-03-26T17:01:00.746Z,78.75
2023-03-26T17:01:59.753Z,78.75
2023-03-26T17:02:59.877Z,84.37
2023-03-26T17:03:59.739Z,95.62
2023-03-26T17:04:59.682Z,140.62
2023-03-26T17:05:59.670Z,219.37
2023-03-26T17:06:59.658Z,275.62
2023-03-26T17:07:59.656Z,337.50
2023-03-26T17:08:59.640Z,354.37
2023-03-26T17:09:59.627Z,337.50
2023-03-26T17:10:59.670Z,320.62
2023-03-26T17:11:59.608Z,320.62
2023-03-26T17:12:59.602Z,298.12
2023-03-26T17:13:59.591Z,286.87
2023-03-26T17:14:59.581Z,281.25
2023-03-26T17:15:59.607Z,264.37
2023-03-26T17:16:59.554Z,258.75
2023-03-26T17:17:59.639Z,247.50
2023-03-26T17:18:59.537Z,236.25
2023-03-26T17:19:59.524Z,225.00
2023-03-26T17:20:59.584Z,174.37
2023-03-26T17:21:59.503Z,61.87
2023-03-26T17:22:59.494Z,118.12
2023-03-26T17:23:59.484Z,67.50
2023-03-26T17:24:59.476Z,39.37
2023-03-26T17:25:59.469Z,33.75
2023-03-26T17:26:59.540Z,33.75
2023-03-26T17:27:59.444Z,33.75
2023-03-26T17:28:59.435Z,33.75
2023-03-26T17:29:59.427Z,28.12
2023-03-26T17:30:59.413Z,28.12
2023-03-26T17:31:59.442Z,28.12
2023-03-26T17:32:59.422Z,28.12
2023-03-26T17:33:59.376Z,22.50
2023-03-26T17:34:59.376Z,22.50
2023-03-26T17:35:59.387Z,22.50
2023-03-26T17:36:59.347Z,16.87
2023-03-26T17:37:59.341Z,16.87
2023-03-26T17:38:59.334Z,16.87
2023-03-26T17:39:59.323Z,11.25
2023-03-26T17:40:59.680Z,11.25
2023-03-26T17:41:59.301Z,11.25
2023-03-26T17:42:59.363Z,5.62
2023-03-26T17:43:59.276Z,5.62
2023-03-26T17:44:59.283Z,5.62
2023-03-26T17:46:04.124Z,5.62
2023-03-26T17:46:59.258Z,5.62